createdAt,value
2022-10-05T00:01:24.981Z,8.05
2022-10-05T00:03:59.086Z,8.01
2022-10-05T00:06:29.824Z,7.98
2022-10-05T00:08:56.677Z,7.92
2022-10-05T00:11:23.420Z,7.30
2022-10-05T00:13:50.136Z,7.45
2022-10-05T00:16:20.562Z,7.79
2022-10-05T00:18:53.207Z,7.14
2022-10-05T00:21:25.427Z,7.72
2022-10-05T00:23:55.543Z,7.52
2022-10-05T00:26:24.900Z,7.65
2022-10-05T00:28:52.982Z,6.50
2022-10-05T00:31:21.226Z,7.42
2022-10-05T00:33:48.875Z,7.32
2022-10-05T00:36:15.730Z,6.74
2022-10-05T00:38:42.930Z,7.29
2022-10-05T00:41:34.617Z,7.29
2022-10-05T00:44:03.763Z,7.44
2022-10-05T00:46:42.512Z,7.49
2022-10-05T00:49:21.355Z,7.52
2022-10-05T00:52:00.809Z,7.46
2022-10-05T00:55:00.323Z,6.94
2022-10-05T00:58:04.206Z,7.68
2022-10-05T01:00:36.728Z,7.51
2022-10-05T01:03:12.458Z,7.53
2022-10-05T01:05:59.667Z,7.34
2022-10-05T01:08:38.419Z,7.52
2022-10-05T01:11:19.400Z,7.43
2022-10-05T01:14:13.020Z,7.27
2022-10-05T01:17:01.478Z,7.42
2022-10-05T01:19:28.095Z,7.43
2022-10-05T01:22:05.734Z,6.66
2022-10-05T01:24:50.019Z,7.14
2022-10-05T01:27:31.715Z,7.15
2022-10-05T01:30:12.205Z,6.96
2022-10-05T01:32:41.823Z,7.11
2022-10-05T01:35:38.932Z,7.01
2022-10-05T01:38:23.263Z,7.02
2022-10-05T01:41:01.517Z,6.58
2022-10-05T01:43:28.007Z,6.86
2022-10-05T01:46:01.164Z,6.92
2022-10-05T01:48:39.262Z,6.80
2022-10-05T01:51:20.781Z,6.90
2022-10-05T01:53:52.696Z,6.45
2022-10-05T01:56:36.994Z,6.96
2022-10-05T01:59:18.926Z,6.78
2022-10-05T02:01:59.174Z,6.74
2022-10-05T02:05:01.099Z,6.45
2022-10-05T02:07:30.109Z,6.29
2022-10-05T02:10:08.882Z,6.78
2022-10-05T02:12:38.055Z,6.75
2022-10-05T02:15:17.233Z,6.87
2022-10-05T02:17:48.903Z,6.47
2022-10-05T02:20:23.673Z,6.85
2022-10-05T02:22:54.268Z,6.92
2022-10-05T02:25:23.750Z,6.87
2022-10-05T02:27:56.841Z,6.67
2022-10-05T02:30:23.563Z,6.76
2022-10-05T02:33:05.719Z,6.72
2022-10-05T02:35:32.428Z,6.23
2022-10-05T02:38:19.496Z,6.52
2022-10-05T02:41:04.824Z,6.72
2022-10-05T02:43:34.680Z,6.71
2022-10-05T02:46:04.374Z,6.75
2022-10-05T02:48:43.284Z,6.69
2022-10-05T02:51:28.099Z,6.60
2022-10-05T02:54:00.536Z,6.58
2022-10-05T02:56:54.445Z,6.47
2022-10-05T02:59:24.039Z,6.48
2022-10-05T03:01:55.838Z,5.94
2022-10-05T03:04:44.105Z,6.44
2022-10-05T03:07:32.856Z,6.40
2022-10-05T03:10:34.170Z,6.42
2022-10-05T03:13:06.801Z,6.41
2022-10-05T03:15:42.151Z,6.44
2022-10-05T03:18:11.384Z,6.61
2022-10-05T03:21:02.845Z,6.55
2022-10-05T03:23:48.761Z,6.15
2022-10-05T03:26:30.276Z,6.34
2022-10-05T03:29:30.678Z,6.33
2022-10-05T03:32:11.436Z,6.11
2022-10-05T03:34:46.518Z,5.77
2022-10-05T03:37:31.269Z,5.84
2022-10-05T03:40:07.948Z,5.86
2022-10-05T03:43:05.587Z,6.30
2022-10-05T03:46:02.915Z,6.32
2022-10-05T03:48:35.406Z,6.32
2022-10-05T03:51:14.778Z,6.26
2022-10-05T03:53:48.083Z,5.94
2022-10-05T03:56:18.351Z,5.98
2022-10-05T03:59:08.170Z,5.94
2022-10-05T04:02:12.906Z,5.91
2022-10-05T04:04:57.024Z,5.29
2022-10-05T04:07:43.667Z,5.98
2022-10-05T04:10:21.235Z,6.00
2022-10-05T04:12:56.444Z,6.13
2022-10-05T04:15:36.381Z,6.20
2022-10-05T04:18:22.867Z,6.10
2022-10-05T04:20:53.883Z,5.73
2022-10-05T04:23:33.217Z,5.82
2022-10-05T04:26:11.520Z,6.12
2022-10-05T04:29:01.173Z,6.19
2022-10-05T04:31:48.830Z,6.21
2022-10-05T04:34:46.278Z,6.13
2022-10-05T04:37:22.586Z,6.10
2022-10-05T04:40:08.050Z,6.18
2022-10-05T04:42:45.188Z,5.48
2022-10-05T04:45:38.372Z,5.65
2022-10-05T04:48:40.310Z,5.35
2022-10-05T04:51:22.187Z,5.91
2022-10-05T04:54:02.466Z,5.94
2022-10-05T04:56:54.768Z,6.01
2022-10-05T04:59:24.884Z,6.05
2022-10-05T05:01:51.388Z,6.23
2022-10-05T05:04:55.265Z,6.37
2022-10-05T05:07:49.467Z,6.52
2022-10-05T05:10:32.666Z,6.72
2022-10-05T05:13:17.439Z,6.83
2022-10-05T05:15:47.194Z,6.82
2022-10-05T05:18:41.614Z,7.16
2022-10-05T05:21:46.696Z,7.30
2022-10-05T05:24:37.314Z,7.36
2022-10-05T05:27:24.965Z,7.34
2022-10-05T05:29:57.680Z,7.62
2022-10-05T05:32:24.181Z,7.82
2022-10-05T05:35:06.749Z,7.68
2022-10-05T05:37:36.472Z,8.22
2022-10-05T05:40:33.215Z,8.00
2022-10-05T05:43:13.905Z,7.49
2022-10-05T05:46:02.797Z,8.40
2022-10-05T05:48:38.352Z,8.56
2022-10-05T05:51:15.044Z,8.57
2022-10-05T05:53:48.044Z,8.01
2022-10-05T05:56:19.302Z,9.11
2022-10-05T05:58:57.790Z,9.14
2022-10-05T06:01:33.665Z,9.51
2022-10-05T06:04:11.033Z,9.81
2022-10-05T06:06:42.388Z,10.01
2022-10-05T06:09:24.814Z,8.47
2022-10-05T06:11:55.157Z,9.94
2022-10-05T06:14:43.516Z,10.59
2022-10-05T06:17:16.283Z,10.41
2022-10-05T06:19:44.168Z,8.78
2022-10-05T06:22:22.395Z,10.57
2022-10-05T06:25:12.235Z,10.61
2022-10-05T06:28:04.150Z,10.80
2022-10-05T06:30:40.653Z,11.18
2022-10-05T06:33:44.974Z,11.52
2022-10-05T06:36:29.983Z,11.38
2022-10-05T06:39:24.903Z,11.50
2022-10-05T06:42:09.011Z,11.86
2022-10-05T06:44:59.828Z,12.23
2022-10-05T06:47:56.105Z,12.61
2022-10-05T06:50:40.743Z,12.86
2022-10-05T06:53:40.841Z,11.03
2022-10-05T06:56:17.268Z,12.42
2022-10-05T06:59:02.571Z,13.00
2022-10-05T07:01:54.253Z,12.81
2022-10-05T07:04:45.654Z,13.75
2022-10-05T07:07:23.259Z,13.43
2022-10-05T07:10:07.407Z,13.75
2022-10-05T07:12:43.945Z,14.10
2022-10-05T07:15:40.204Z,14.31
2022-10-05T07:18:12.822Z,14.63
2022-10-05T07:21:05.842Z,14.17
2022-10-05T07:23:57.591Z,13.07
2022-10-05T07:26:39.124Z,15.31
2022-10-05T07:29:34.711Z,14.67
2022-10-05T07:32:22.180Z,15.71
2022-10-05T07:35:00.800Z,16.06
2022-10-05T07:37:57.411Z,16.22
2022-10-05T07:40:33.196Z,16.47
2022-10-05T07:43:15.249Z,16.67
2022-10-05T07:45:44.634Z,16.99
2022-10-05T07:48:45.948Z,16.07
2022-10-05T07:51:29.952Z,16.75
2022-10-05T07:54:15.613Z,16.69
2022-10-05T07:56:49.615Z,16.75
2022-10-05T07:59:36.664Z,16.27
2022-10-05T08:02:17.725Z,17.00
2022-10-05T08:04:57.678Z,17.34
2022-10-05T08:09:53.898Z,16.77
2022-10-05T08:12:37.572Z,17.12
2022-10-05T08:15:26.451Z,17.49
2022-10-05T08:18:00.517Z,17.26
2022-10-05T08:20:54.313Z,17.50
2022-10-05T08:23:36.085Z,18.01
2022-10-05T08:26:48.155Z,18.14
2022-10-05T08:29:33.890Z,18.27
2022-10-05T08:32:12.363Z,18.26
2022-10-05T08:34:55.725Z,18.67
2022-10-05T08:37:27.641Z,18.24
2022-10-05T08:40:22.627Z,18.92
2022-10-05T08:43:08.740Z,18.74
2022-10-05T08:45:54.355Z,18.26
2022-10-05T08:48:44.158Z,19.15
2022-10-05T08:51:31.954Z,19.23
2022-10-05T08:53:58.644Z,19.40
2022-10-05T08:56:51.551Z,19.42
2022-10-05T08:59:40.332Z,18.50
2022-10-05T09:02:23.681Z,19.43
2022-10-05T09:05:18.209Z,19.30
2022-10-05T09:08:04.642Z,18.66
2022-10-05T09:10:49.819Z,18.37
2022-10-05T09:13:54.283Z,18.78
2022-10-05T09:16:38.837Z,19.09
2022-10-05T09:19:23.744Z,19.19
2022-10-05T09:21:53.349Z,19.28
2022-10-05T09:24:35.480Z,19.43
2022-10-05T09:27:16.115Z,19.74
2022-10-05T09:30:05.381Z,19.80
2022-10-05T09:32:41.075Z,19.92
2022-10-05T09:35:45.139Z,20.14
2022-10-05T09:38:23.365Z,20.21
2022-10-05T09:41:27.483Z,20.39
2022-10-05T09:44:12.758Z,19.62
2022-10-05T09:46:45.199Z,19.32
2022-10-05T09:49:39.807Z,19.49
2022-10-05T09:52:21.555Z,18.60
2022-10-05T09:55:05.546Z,19.69
2022-10-05T09:57:53.164Z,19.42
2022-10-05T10:00:24.208Z,19.04
2022-10-05T10:03:20.960Z,18.29
2022-10-05T10:06:10.505Z,19.15
2022-10-05T10:09:14.209Z,18.91
2022-10-05T10:12:11.535Z,18.61
2022-10-05T10:14:49.534Z,19.23
2022-10-05T10:17:16.032Z,19.49
2022-10-05T10:19:57.749Z,19.34
2022-10-05T10:22:52.290Z,18.96
2022-10-05T10:25:34.853Z,19.11
2022-10-05T10:28:13.708Z,19.28
2022-10-05T10:30:58.599Z,20.14
2022-10-05T10:33:44.817Z,20.09
2022-10-05T10:36:22.522Z,19.10
2022-10-05T10:39:16.813Z,19.54
2022-10-05T10:42:31.673Z,21.13
2022-10-05T10:45:16.784Z,21.21
2022-10-05T10:47:57.028Z,20.91
2022-10-05T10:50:24.027Z,20.95
2022-10-05T10:53:27.852Z,20.07
2022-10-05T10:56:13.319Z,19.14
2022-10-05T10:59:12.129Z,19.87
2022-10-05T11:02:03.052Z,19.65
2022-10-05T11:04:56.123Z,19.99
2022-10-05T11:07:40.770Z,19.88
2022-10-05T11:10:26.113Z,20.38
2022-10-05T11:13:14.531Z,20.50
2022-10-05T11:16:12.529Z,20.51
2022-10-05T11:19:05.200Z,20.50
2022-10-05T11:21:56.709Z,20.68
2022-10-05T11:24:40.072Z,20.66
2022-10-05T11:30:25.737Z,19.77
2022-10-05T11:33:11.260Z,20.28
2022-10-05T11:35:46.788Z,20.47
2022-10-05T11:38:54.225Z,19.45
2022-10-05T11:41:32.947Z,19.68
2022-10-05T11:44:20.678Z,20.29
2022-10-05T11:47:24.386Z,19.37
2022-10-05T11:50:17.198Z,19.96
2022-10-05T11:53:06.217Z,19.92
2022-10-05T11:56:00.450Z,19.93
2022-10-05T11:58:33.385Z,19.53
2022-10-05T12:01:34.705Z,20.18
2022-10-05T12:04:52.562Z,19.92
2022-10-05T12:07:44.599Z,19.99
2022-10-05T12:10:34.269Z,20.16
2022-10-05T12:13:01.502Z,20.61
2022-10-05T12:15:48.167Z,20.77
2022-10-05T12:18:23.712Z,20.91
2022-10-05T12:20:54.263Z,20.75
2022-10-05T12:23:24.953Z,20.87
2022-10-05T12:26:00.317Z,20.49
2022-10-05T12:28:49.886Z,20.47
2022-10-05T12:31:27.593Z,20.66
2022-10-05T12:34:00.356Z,19.73
2022-10-05T12:37:02.544Z,19.79
2022-10-05T12:39:48.704Z,19.98
2022-10-05T12:42:42.043Z,20.17
2022-10-05T12:45:30.586Z,19.93
2022-10-05T12:48:12.255Z,19.48
2022-10-05T12:50:46.497Z,18.63
2022-10-05T12:53:41.125Z,19.47
2022-10-05T12:56:07.682Z,19.25
2022-10-05T12:58:54.444Z,19.37
2022-10-05T13:01:50.821Z,19.06
2022-10-05T13:04:24.261Z,20.32
2022-10-05T13:07:21.318Z,20.40
2022-10-05T13:09:55.840Z,20.00
2022-10-05T13:12:48.053Z,20.80
2022-10-05T13:15:26.599Z,20.72
2022-10-05T13:18:24.103Z,20.67
2022-10-05T13:21:04.538Z,20.70
2022-10-05T13:23:40.957Z,20.47
2022-10-05T13:26:26.667Z,20.49
2022-10-05T13:29:04.588Z,20.47
2022-10-05T13:31:49.637Z,19.98
2022-10-05T13:34:34.150Z,19.64
2022-10-05T13:37:07.035Z,19.28
2022-10-05T13:39:52.085Z,18.75
2022-10-05T13:42:31.189Z,18.94
2022-10-05T13:45:03.495Z,18.78
2022-10-05T13:47:39.648Z,18.69
2022-10-05T13:50:17.444Z,17.35
2022-10-05T13:52:54.589Z,18.84
2022-10-05T13:55:39.968Z,18.67
2022-10-05T13:58:28.471Z,18.81
2022-10-05T14:01:08.495Z,18.34
2022-10-05T14:03:38.165Z,18.40
2022-10-05T14:06:14.015Z,18.37
2022-10-05T14:08:51.628Z,18.39
2022-10-05T14:11:26.807Z,18.57
2022-10-05T14:14:03.379Z,18.20
2022-10-05T14:16:33.079Z,18.35
2022-10-05T14:19:05.645Z,18.74
2022-10-05T14:21:43.353Z,16.88
2022-10-05T14:24:43.794Z,18.48
2022-10-05T14:27:33.837Z,18.28
2022-10-05T14:30:09.533Z,18.21
2022-10-05T14:33:03.284Z,17.95
2022-10-05T14:35:37.373Z,17.79
2022-10-05T14:38:26.367Z,17.76
2022-10-05T14:41:20.433Z,18.08
2022-10-05T14:44:05.630Z,17.90
2022-10-05T14:46:34.926Z,17.78
2022-10-05T14:49:21.217Z,17.69
2022-10-05T14:51:49.456Z,17.63
2022-10-05T14:54:25.305Z,17.39
2022-10-05T14:57:18.359Z,17.36
2022-10-05T14:59:51.717Z,17.39
2022-10-05T15:02:45.315Z,17.22
2022-10-05T15:05:19.158Z,16.89
2022-10-05T15:07:49.890Z,17.21
2022-10-05T15:10:19.890Z,17.15
2022-10-05T15:12:48.434Z,16.97
2022-10-05T15:15:37.190Z,16.97
2022-10-05T15:18:16.761Z,17.00
2022-10-05T15:21:03.597Z,17.05
2022-10-05T15:23:48.911Z,16.51
2022-10-05T15:26:52.180Z,16.88
2022-10-05T15:29:26.136Z,16.72
2022-10-05T15:32:23.971Z,16.76
2022-10-05T15:35:06.077Z,16.76
2022-10-05T15:37:47.566Z,16.79
2022-10-05T15:40:28.499Z,16.77
2022-10-05T15:43:02.876Z,16.75
2022-10-05T15:45:34.102Z,16.70
2022-10-05T15:48:05.207Z,16.69
2022-10-05T15:51:10.156Z,16.56
2022-10-05T15:53:48.511Z,16.54
2022-10-05T15:56:38.762Z,16.40
2022-10-05T15:59:18.537Z,16.28
2022-10-05T16:01:55.708Z,16.25
2022-10-05T16:04:51.860Z,16.18
2022-10-05T16:08:01.368Z,16.09
2022-10-05T16:10:33.870Z,16.01
2022-10-05T16:13:20.350Z,15.88
2022-10-05T16:16:34.463Z,15.76
2022-10-05T16:19:30.759Z,15.78
2022-10-05T16:22:15.281Z,15.56
2022-10-05T16:25:30.676Z,15.58
2022-10-05T16:28:09.075Z,15.53
2022-10-05T16:31:06.730Z,15.48
2022-10-05T16:34:00.933Z,15.41
2022-10-05T16:36:37.623Z,15.35
2022-10-05T16:39:13.280Z,14.72
2022-10-05T16:41:56.519Z,15.19
2022-10-05T16:45:10.733Z,15.19
2022-10-05T16:47:55.349Z,15.06
2022-10-05T16:50:27.581Z,14.99
2022-10-05T16:53:04.870Z,15.00
2022-10-05T16:55:42.876Z,14.97
2022-10-05T16:58:38.919Z,14.88
2022-10-05T17:01:14.530Z,14.90
2022-10-05T17:04:03.290Z,14.77
2022-10-05T17:06:51.245Z,14.52
2022-10-05T17:09:39.721Z,13.90
2022-10-05T17:12:15.643Z,14.57
2022-10-05T17:14:43.091Z,14.53
2022-10-05T17:17:28.372Z,14.52
2022-10-05T17:20:23.672Z,14.52
2022-10-05T17:23:29.257Z,14.47
2022-10-05T17:26:18.624Z,14.15
2022-10-05T17:28:51.145Z,14.40
2022-10-05T17:31:22.413Z,14.00
2022-10-05T17:34:18.100Z,14.32
2022-10-05T17:36:49.900Z,14.26
2022-10-05T17:39:19.770Z,14.29
2022-10-05T17:41:49.005Z,14.24
2022-10-05T17:44:21.694Z,13.69
2022-10-05T17:46:59.597Z,14.04
2022-10-05T17:49:38.715Z,13.79
2022-10-05T17:53:01.901Z,13.76
2022-10-05T17:55:31.729Z,13.58
2022-10-05T17:58:22.182Z,13.64
2022-10-05T18:00:58.259Z,13.44
2022-10-05T18:03:45.151Z,13.36
2022-10-05T18:06:24.795Z,13.36
2022-10-05T18:09:16.967Z,13.34
2022-10-05T18:12:02.485Z,13.00
2022-10-05T18:14:49.202Z,12.95
2022-10-05T18:17:36.862Z,12.84
2022-10-05T18:20:26.478Z,12.67
2022-10-05T18:23:14.500Z,12.44
2022-10-05T18:26:06.155Z,12.37
2022-10-05T18:29:13.642Z,12.07
2022-10-05T18:31:54.666Z,12.31
2022-10-05T18:34:32.804Z,12.31
2022-10-05T18:37:08.420Z,12.22
2022-10-05T18:40:12.933Z,12.10
2022-10-05T18:42:48.504Z,12.01
2022-10-05T18:45:33.685Z,11.95
2022-10-05T18:48:18.571Z,12.01
2022-10-05T18:51:08.481Z,12.04
2022-10-05T18:53:57.124Z,11.95
2022-10-05T18:56:43.483Z,11.85
2022-10-05T18:59:54.773Z,11.70
2022-10-05T19:02:30.409Z,11.59
2022-10-05T19:05:11.574Z,11.62
2022-10-05T19:08:07.987Z,11.45
2022-10-05T19:10:45.226Z,11.36
2022-10-05T19:13:20.589Z,11.26
2022-10-05T19:15:56.226Z,11.14
2022-10-05T19:18:41.842Z,11.23
2022-10-05T19:21:08.418Z,11.15
2022-10-05T19:23:56.423Z,11.10
2022-10-05T19:26:41.446Z,11.06
2022-10-05T19:29:19.931Z,10.73
2022-10-05T19:32:04.469Z,11.05
2022-10-05T19:35:00.669Z,10.77
2022-10-05T19:37:51.974Z,10.86
2022-10-05T19:40:24.463Z,10.85
2022-10-05T19:42:56.743Z,10.60
2022-10-05T19:45:26.716Z,10.40
2022-10-05T19:48:05.905Z,10.50
2022-10-05T19:50:35.419Z,10.29
2022-10-05T19:53:08.250Z,10.55
2022-10-05T19:55:39.621Z,10.47
2022-10-05T19:58:16.886Z,10.02
2022-10-05T20:00:45.826Z,10.51
2022-10-05T20:03:23.468Z,10.47
2022-10-05T20:05:54.081Z,10.46
2022-10-05T20:08:22.695Z,10.45
2022-10-05T20:11:21.159Z,10.48
2022-10-05T20:13:47.718Z,10.46
2022-10-05T20:16:37.609Z,10.48
2022-10-05T20:19:50.934Z,10.42
2022-10-05T20:22:46.490Z,10.36
2022-10-05T20:25:19.211Z,10.26
2022-10-05T20:27:51.829Z,10.14
2022-10-05T20:30:20.807Z,10.24
2022-10-05T20:32:49.080Z,10.26
2022-10-05T20:35:18.870Z,10.12
2022-10-05T20:37:45.438Z,9.22
2022-10-05T20:40:12.150Z,10.13
2022-10-05T20:42:38.786Z,10.11
2022-10-05T20:45:06.461Z,10.06
2022-10-05T20:47:33.731Z,10.14
2022-10-05T20:50:01.169Z,9.59
2022-10-05T20:52:27.822Z,10.08
2022-10-05T20:54:59.359Z,10.05
2022-10-05T20:57:26.657Z,9.95
2022-10-05T20:59:53.705Z,9.90
2022-10-05T21:02:20.605Z,9.91
2022-10-05T21:04:47.837Z,9.82
2022-10-05T21:07:21.125Z,9.54
2022-10-05T21:09:47.790Z,9.53
2022-10-05T21:12:14.588Z,9.54
2022-10-05T21:14:41.252Z,9.14
2022-10-05T21:17:08.136Z,9.23
2022-10-05T21:19:44.080Z,9.26
2022-10-05T21:22:10.690Z,9.33
2022-10-05T21:24:38.839Z,9.35
2022-10-05T21:27:06.048Z,9.38
2022-10-05T21:29:34.299Z,8.56
2022-10-05T21:32:01.003Z,8.49
2022-10-05T21:34:28.698Z,8.41
2022-10-05T21:36:55.300Z,8.31
2022-10-05T21:39:22.108Z,8.42
2022-10-05T21:41:49.752Z,8.27
2022-10-05T21:44:16.708Z,8.46
2022-10-05T21:46:43.470Z,8.52
2022-10-05T21:49:10.201Z,8.50
2022-10-05T21:51:37.426Z,8.43
2022-10-05T21:54:10.775Z,8.58
2022-10-05T21:56:38.699Z,8.63
2022-10-05T21:59:08.727Z,8.38
2022-10-05T22:01:36.054Z,8.61
2022-10-05T22:04:03.935Z,8.38
2022-10-05T22:06:31.454Z,8.66
2022-10-05T22:08:58.315Z,8.57
2022-10-05T22:11:25.433Z,8.44
2022-10-05T22:13:53.115Z,8.59
2022-10-05T22:16:23.332Z,8.63
2022-10-05T22:18:50.127Z,8.04
2022-10-05T22:21:17.341Z,8.56
2022-10-05T22:23:45.667Z,8.12
2022-10-05T22:26:16.507Z,8.59
2022-10-05T22:28:44.423Z,8.56
2022-10-05T22:31:12.837Z,7.96
2022-10-05T22:33:40.887Z,8.52
2022-10-05T22:36:08.789Z,8.79
2022-10-05T22:38:35.481Z,8.47
2022-10-05T22:41:02.319Z,8.55
2022-10-05T22:43:29.062Z,8.14
2022-10-05T22:45:56.268Z,8.56
2022-10-05T22:48:23.270Z,8.48
2022-10-05T22:50:49.860Z,8.15
2022-10-05T22:53:16.535Z,8.49
2022-10-05T22:55:43.077Z,8.43
2022-10-05T22:58:09.742Z,7.98
2022-10-05T23:00:56.849Z,8.31
2022-10-05T23:03:23.347Z,8.37
2022-10-05T23:05:56.631Z,8.32
2022-10-05T23:08:23.175Z,8.35
2022-10-05T23:10:49.839Z,8.29
2022-10-05T23:13:16.405Z,7.90
2022-10-05T23:15:42.974Z,8.31
2022-10-05T23:18:09.563Z,8.12
2022-10-05T23:20:37.066Z,7.74
2022-10-05T23:23:03.643Z,7.97
2022-10-05T23:25:30.204Z,8.00
2022-10-05T23:27:56.822Z,7.65
2022-10-05T23:30:23.496Z,7.93
2022-10-05T23:32:50.038Z,6.98
2022-10-05T23:35:16.639Z,7.36
2022-10-05T23:37:44.475Z,7.73
2022-10-05T23:40:13.470Z,7.80
2022-10-05T23:42:41.054Z,7.93
2022-10-05T23:45:11.844Z,8.07
2022-10-05T23:47:39.919Z,8.10
2022-10-05T23:50:08.266Z,7.63
2022-10-05T23:52:35.732Z,8.04
2022-10-05T23:55:03.679Z,7.98
2022-10-05T23:57:30.990Z,8.02
2022-10-05T23:59:57.596Z,7.86
